sensor_id;sensor_type;location;lat;lon;timestamp;P1;durP1;ratioP1;P2;durP2;ratioP2
10132;SDS011;5106;50.926;7.080;2024-01-06T00:00:56;3.10;;;2.80;;
10132;SDS011;5106;50.926;7.080;2024-01-06T00:03:22;4.87;;;3.20;;
10132;SDS011;5106;50.926;7.080;2024-01-06T00:05:48;5.03;;;2.93;;
10132;SDS011;5106;50.926;7.080;2024-01-06T00:08:13;3.57;;;2.73;;
10132;SDS011;5106;50.926;7.080;2024-01-06T00:10:39;4.43;;;3.10;;
10132;SDS011;5106;50.926;7.080;2024-01-06T00:13:05;3.00;;;2.70;;
10132;SDS011;5106;50.926;7.080;2024-01-06T00:15:30;4.23;;;2.97;;
10132;SDS011;5106;50.926;7.080;2024-01-06T00:17:56;3.80;;;3.20;;
10132;SDS011;5106;50.926;7.080;2024-01-06T00:20:22;3.80;;;3.20;;
10132;SDS011;5106;50.926;7.080;2024-01-06T00:22:57;3.90;;;3.50;;
10132;SDS011;5106;50.926;7.080;2024-01-06T00:25:24;4.90;;;3.77;;
10132;SDS011;5106;50.926;7.080;2024-01-06T00:27:49;4.30;;;3.90;;
10132;SDS011;5106;50.926;7.080;2024-01-06T00:30:15;4.20;;;3.80;;
10132;SDS011;5106;50.926;7.080;2024-01-06T00:32:40;4.73;;;4.07;;
10132;SDS011;5106;50.926;7.080;2024-01-06T00:35:06;4.13;;;3.57;;
10132;SDS011;5106;50.926;7.080;2024-01-06T00:37:32;4.20;;;3.80;;
10132;SDS011;5106;50.926;7.080;2024-01-06T00:39:57;4.40;;;3.67;;
10132;SDS011;5106;50.926;7.080;2024-01-06T00:42:24;6.07;;;3.93;;
10132;SDS011;5106;50.926;7.080;2024-01-06T00:44:50;4.80;;;4.10;;
10132;SDS011;5106;50.926;7.080;2024-01-06T00:47:15;4.40;;;4.00;;
10132;SDS011;5106;50.926;7.080;2024-01-06T00:49:41;4.87;;;4.03;;
10132;SDS011;5106;50.926;7.080;2024-01-06T00:52:07;4.60;;;4.20;;
10132;SDS011;5106;50.926;7.080;2024-01-06T00:54:33;4.70;;;4.07;;
10132;SDS011;5106;50.926;7.080;2024-01-06T00:56:58;4.87;;;3.73;;
10132;SDS011;5106;50.926;7.080;2024-01-06T00:59:24;5.07;;;4.40;;
10132;SDS011;5106;50.926;7.080;2024-01-06T01:01:50;4.43;;;4.03;;
10132;SDS011;5106;50.926;7.080;2024-01-06T01:04:16;5.57;;;4.40;;
10132;SDS011;5106;50.926;7.080;2024-01-06T01:06:41;5.20;;;4.30;;
10132;SDS011;5106;50.926;7.080;2024-01-06T01:09:07;6.20;;;4.70;;
10132;SDS011;5106;50.926;7.080;2024-01-06T01:11:34;5.33;;;4.30;;
10132;SDS011;5106;50.926;7.080;2024-01-06T01:13:59;5.80;;;4.60;;
10132;SDS011;5106;50.926;7.080;2024-01-06T01:16:25;7.23;;;5.43;;
10132;SDS011;5106;50.926;7.080;2024-01-06T01:18:50;6.43;;;5.40;;
10132;SDS011;5106;50.926;7.080;2024-01-06T01:21:16;7.37;;;5.30;;
10132;SDS011;5106;50.926;7.080;2024-01-06T01:23:42;6.63;;;5.33;;
10132;SDS011;5106;50.926;7.080;2024-01-06T01:26:08;7.40;;;5.63;;
10132;SDS011;5106;50.926;7.080;2024-01-06T01:28:33;6.27;;;5.67;;
10132;SDS011;5106;50.926;7.080;2024-01-06T01:30:59;6.30;;;5.17;;
10132;SDS011;5106;50.926;7.080;2024-01-06T01:33:25;6.73;;;5.80;;
10132;SDS011;5106;50.926;7.080;2024-01-06T01:35:50;8.60;;;6.27;;
10132;SDS011;5106;50.926;7.080;2024-01-06T01:38:16;7.77;;;6.03;;
10132;SDS011;5106;50.926;7.080;2024-01-06T01:40:42;7.80;;;6.40;;
10132;SDS011;5106;50.926;7.080;2024-01-06T01:43:15;7.67;;;6.00;;
10132;SDS011;5106;50.926;7.080;2024-01-06T01:45:41;7.97;;;6.40;;
10132;SDS011;5106;50.926;7.080;2024-01-06T01:48:07;7.20;;;6.03;;
10132;SDS011;5106;50.926;7.080;2024-01-06T01:50:33;8.03;;;6.27;;
10132;SDS011;5106;50.926;7.080;2024-01-06T01:52:59;7.73;;;6.47;;
10132;SDS011;5106;50.926;7.080;2024-01-06T01:55:25;7.57;;;6.63;;
10132;SDS011;5106;50.926;7.080;2024-01-06T01:57:51;9.00;;;7.27;;
10132;SDS011;5106;50.926;7.080;2024-01-06T02:00:17;7.93;;;6.70;;
10132;SDS011;5106;50.926;7.080;2024-01-06T02:02:42;7.73;;;6.50;;
10132;SDS011;5106;50.926;7.080;2024-01-06T02:05:08;8.40;;;7.10;;
10132;SDS011;5106;50.926;7.080;2024-01-06T02:07:34;8.80;;;7.27;;
10132;SDS011;5106;50.926;7.080;2024-01-06T02:10:00;7.97;;;6.80;;
10132;SDS011;5106;50.926;7.080;2024-01-06T02:12:25;9.00;;;6.50;;
10132;SDS011;5106;50.926;7.080;2024-01-06T02:14:51;8.70;;;6.90;;
10132;SDS011;5106;50.926;7.080;2024-01-06T02:17:16;8.97;;;7.40;;
10132;SDS011;5106;50.926;7.080;2024-01-06T02:19:42;9.17;;;6.67;;
10132;SDS011;5106;50.926;7.080;2024-01-06T02:22:08;8.53;;;6.70;;
10132;SDS011;5106;50.926;7.080;2024-01-06T02:24:33;8.00;;;6.70;;
10132;SDS011;5106;50.926;7.080;2024-01-06T02:26:59;8.50;;;7.20;;
10132;SDS011;5106;50.926;7.080;2024-01-06T02:29:24;7.47;;;6.27;;
10132;SDS011;5106;50.926;7.080;2024-01-06T02:31:50;8.97;;;6.67;;
10132;SDS011;5106;50.926;7.080;2024-01-06T02:34:15;7.70;;;6.90;;
10132;SDS011;5106;50.926;7.080;2024-01-06T02:36:41;8.77;;;6.53;;
10132;SDS011;5106;50.926;7.080;2024-01-06T02:39:06;6.83;;;6.13;;
10132;SDS011;5106;50.926;7.080;2024-01-06T02:41:32;8.97;;;6.23;;
10132;SDS011;5106;50.926;7.080;2024-01-06T02:43:58;6.90;;;5.80;;
10132;SDS011;5106;50.926;7.080;2024-01-06T02:46:23;7.43;;;6.40;;
10132;SDS011;5106;50.926;7.080;2024-01-06T02:48:49;7.40;;;6.30;;
10132;SDS011;5106;50.926;7.080;2024-01-06T02:51:15;7.57;;;6.53;;
10132;SDS011;5106;50.926;7.080;2024-01-06T02:53:40;8.20;;;6.97;;
10132;SDS011;5106;50.926;7.080;2024-01-06T02:56:09;7.93;;;6.43;;
10132;SDS011;5106;50.926;7.080;2024-01-06T02:58:36;8.10;;;6.20;;
10132;SDS011;5106;50.926;7.080;2024-01-06T03:01:02;7.70;;;6.53;;
10132;SDS011;5106;50.926;7.080;2024-01-06T03:03:27;7.77;;;6.63;;
10132;SDS011;5106;50.926;7.080;2024-01-06T03:05:53;9.00;;;6.97;;
10132;SDS011;5106;50.926;7.080;2024-01-06T03:08:19;8.03;;;6.67;;
10132;SDS011;5106;50.926;7.080;2024-01-06T03:10:44;8.40;;;6.87;;
10132;SDS011;5106;50.926;7.080;2024-01-06T03:13:10;8.90;;;7.03;;
10132;SDS011;5106;50.926;7.080;2024-01-06T03:15:35;9.10;;;7.50;;
10132;SDS011;5106;50.926;7.080;2024-01-06T03:18:01;10.60;;;8.17;;
10132;SDS011;5106;50.926;7.080;2024-01-06T03:20:26;9.00;;;7.23;;
10132;SDS011;5106;50.926;7.080;2024-01-06T03:22:52;9.30;;;7.47;;
10132;SDS011;5106;50.926;7.080;2024-01-06T03:25:17;9.70;;;8.10;;
10132;SDS011;5106;50.926;7.080;2024-01-06T03:27:43;10.17;;;8.00;;
10132;SDS011;5106;50.926;7.080;2024-01-06T03:30:09;9.83;;;8.40;;
10132;SDS011;5106;50.926;7.080;2024-01-06T03:32:35;11.37;;;8.37;;
10132;SDS011;5106;50.926;7.080;2024-01-06T03:35:00;9.47;;;7.67;;
10132;SDS011;5106;50.926;7.080;2024-01-06T03:37:26;11.03;;;8.23;;
10132;SDS011;5106;50.926;7.080;2024-01-06T03:39:51;12.00;;;9.30;;
10132;SDS011;5106;50.926;7.080;2024-01-06T03:42:17;11.57;;;8.40;;
10132;SDS011;5106;50.926;7.080;2024-01-06T03:44:43;11.67;;;8.90;;
10132;SDS011;5106;50.926;7.080;2024-01-06T03:47:08;11.77;;;9.10;;
10132;SDS011;5106;50.926;7.080;2024-01-06T03:49:34;12.20;;;9.60;;
10132;SDS011;5106;50.926;7.080;2024-01-06T03:51:59;12.10;;;9.07;;
10132;SDS011;5106;50.926;7.080;2024-01-06T03:54:25;13.53;;;9.23;;
10132;SDS011;5106;50.926;7.080;2024-01-06T03:56:50;13.93;;;9.87;;
10132;SDS011;5106;50.926;7.080;2024-01-06T03:59:16;13.20;;;9.70;;
10132;SDS011;5106;50.926;7.080;2024-01-06T04:01:41;12.17;;;9.50;;
10132;SDS011;5106;50.926;7.080;2024-01-06T04:04:07;14.07;;;10.67;;
10132;SDS011;5106;50.926;7.080;2024-01-06T04:06:33;13.33;;;10.13;;
10132;SDS011;5106;50.926;7.080;2024-01-06T04:08:58;11.53;;;9.33;;
10132;SDS011;5106;50.926;7.080;2024-01-06T04:11:25;13.40;;;9.97;;
10132;SDS011;5106;50.926;7.080;2024-01-06T04:13:50;12.00;;;9.63;;
10132;SDS011;5106;50.926;7.080;2024-01-06T04:16:16;14.43;;;10.10;;
10132;SDS011;5106;50.926;7.080;2024-01-06T04:18:42;14.10;;;10.00;;
10132;SDS011;5106;50.926;7.080;2024-01-06T04:21:07;15.00;;;10.70;;
10132;SDS011;5106;50.926;7.080;2024-01-06T04:23:33;13.57;;;9.80;;
10132;SDS011;5106;50.926;7.080;2024-01-06T04:25:59;15.20;;;10.70;;
10132;SDS011;5106;50.926;7.080;2024-01-06T04:28:25;15.00;;;10.97;;
10132;SDS011;5106;50.926;7.080;2024-01-06T04:30:51;15.43;;;11.23;;
10132;SDS011;5106;50.926;7.080;2024-01-06T04:33:16;14.77;;;10.97;;
10132;SDS011;5106;50.926;7.080;2024-01-06T04:35:42;13.53;;;10.37;;
10132;SDS011;5106;50.926;7.080;2024-01-06T04:38:07;13.23;;;10.20;;
10132;SDS011;5106;50.926;7.080;2024-01-06T04:40:34;16.87;;;11.40;;
10132;SDS011;5106;50.926;7.080;2024-01-06T04:42:59;15.53;;;11.30;;
10132;SDS011;5106;50.926;7.080;2024-01-06T04:45:25;13.70;;;10.37;;
10132;SDS011;5106;50.926;7.080;2024-01-06T04:47:50;15.60;;;11.80;;
10132;SDS011;5106;50.926;7.080;2024-01-06T04:50:16;16.50;;;12.27;;
10132;SDS011;5106;50.926;7.080;2024-01-06T04:52:42;18.87;;;13.07;;
10132;SDS011;5106;50.926;7.080;2024-01-06T04:55:08;19.27;;;12.80;;
10132;SDS011;5106;50.926;7.080;2024-01-06T04:57:34;18.73;;;12.57;;
10132;SDS011;5106;50.926;7.080;2024-01-06T05:00:00;18.33;;;13.43;;
10132;SDS011;5106;50.926;7.080;2024-01-06T05:02:26;20.30;;;13.93;;
10132;SDS011;5106;50.926;7.080;2024-01-06T05:04:51;21.57;;;14.13;;
10132;SDS011;5106;50.926;7.080;2024-01-06T05:07:17;21.10;;;14.90;;
10132;SDS011;5106;50.926;7.080;2024-01-06T05:09:42;21.77;;;14.37;;
10132;SDS011;5106;50.926;7.080;2024-01-06T05:12:08;23.13;;;15.37;;
10132;SDS011;5106;50.926;7.080;2024-01-06T05:14:34;20.40;;;13.97;;
10132;SDS011;5106;50.926;7.080;2024-01-06T05:16:59;21.03;;;15.20;;
10132;SDS011;5106;50.926;7.080;2024-01-06T05:19:25;20.73;;;14.90;;
10132;SDS011;5106;50.926;7.080;2024-01-06T05:21:50;22.93;;;16.17;;
10132;SDS011;5106;50.926;7.080;2024-01-06T05:24:19;21.40;;;15.43;;
10132;SDS011;5106;50.926;7.080;2024-01-06T05:26:45;23.57;;;15.40;;
10132;SDS011;5106;50.926;7.080;2024-01-06T05:29:10;26.43;;;17.03;;
10132;SDS011;5106;50.926;7.080;2024-01-06T05:31:36;21.50;;;15.80;;
10132;SDS011;5106;50.926;7.080;2024-01-06T05:34:02;24.77;;;16.70;;
10132;SDS011;5106;50.926;7.080;2024-01-06T05:36:27;25.17;;;16.40;;
10132;SDS011;5106;50.926;7.080;2024-01-06T05:38:53;27.33;;;17.07;;
10132;SDS011;5106;50.926;7.080;2024-01-06T05:41:18;25.70;;;17.40;;
10132;SDS011;5106;50.926;7.080;2024-01-06T05:43:44;26.97;;;17.33;;
10132;SDS011;5106;50.926;7.080;2024-01-06T05:46:09;31.60;;;20.03;;
10132;SDS011;5106;50.926;7.080;2024-01-06T05:48:35;32.27;;;20.10;;
10132;SDS011;5106;50.926;7.080;2024-01-06T05:51:01;30.13;;;19.83;;
10132;SDS011;5106;50.926;7.080;2024-01-06T05:53:29;30.43;;;20.30;;
10132;SDS011;5106;50.926;7.080;2024-01-06T05:55:54;30.23;;;19.30;;
10132;SDS011;5106;50.926;7.080;2024-01-06T05:58:20;27.97;;;19.60;;
10132;SDS011;5106;50.926;7.080;2024-01-06T06:00:45;30.00;;;19.73;;
10132;SDS011;5106;50.926;7.080;2024-01-06T06:03:11;31.13;;;19.43;;
10132;SDS011;5106;50.926;7.080;2024-01-06T06:05:37;29.10;;;18.87;;
10132;SDS011;5106;50.926;7.080;2024-01-06T06:08:03;30.53;;;18.27;;
10132;SDS011;5106;50.926;7.080;2024-01-06T06:10:29;27.00;;;17.23;;
10132;SDS011;5106;50.926;7.080;2024-01-06T06:13:05;27.73;;;17.30;;
10132;SDS011;5106;50.926;7.080;2024-01-06T06:15:31;28.40;;;17.60;;
10132;SDS011;5106;50.926;7.080;2024-01-06T06:17:57;26.07;;;17.13;;
10132;SDS011;5106;50.926;7.080;2024-01-06T06:20:25;27.20;;;16.90;;
10132;SDS011;5106;50.926;7.080;2024-01-06T06:22:51;24.00;;;16.03;;
10132;SDS011;5106;50.926;7.080;2024-01-06T06:25:16;23.83;;;14.90;;
10132;SDS011;5106;50.926;7.080;2024-01-06T06:27:42;23.93;;;15.27;;
10132;SDS011;5106;50.926;7.080;2024-01-06T06:30:07;25.17;;;15.37;;
10132;SDS011;5106;50.926;7.080;2024-01-06T06:32:33;23.77;;;15.10;;
10132;SDS011;5106;50.926;7.080;2024-01-06T06:34:59;23.60;;;14.57;;
10132;SDS011;5106;50.926;7.080;2024-01-06T06:37:25;22.67;;;15.30;;
10132;SDS011;5106;50.926;7.080;2024-01-06T06:39:50;23.00;;;14.17;;
10132;SDS011;5106;50.926;7.080;2024-01-06T06:42:16;18.63;;;12.50;;
10132;SDS011;5106;50.926;7.080;2024-01-06T06:44:42;17.40;;;11.70;;
10132;SDS011;5106;50.926;7.080;2024-01-06T06:47:07;16.13;;;9.33;;
10132;SDS011;5106;50.926;7.080;2024-01-06T06:49:33;10.00;;;6.37;;
10132;SDS011;5106;50.926;7.080;2024-01-06T06:51:59;10.40;;;6.30;;
10132;SDS011;5106;50.926;7.080;2024-01-06T06:54:24;9.73;;;6.13;;
10132;SDS011;5106;50.926;7.080;2024-01-06T06:56:50;9.97;;;6.67;;
10132;SDS011;5106;50.926;7.080;2024-01-06T06:59:15;11.40;;;6.60;;
10132;SDS011;5106;50.926;7.080;2024-01-06T07:01:41;12.20;;;6.70;;
10132;SDS011;5106;50.926;7.080;2024-01-06T07:04:07;11.37;;;6.27;;
10132;SDS011;5106;50.926;7.080;2024-01-06T07:06:32;11.87;;;7.13;;
10132;SDS011;5106;50.926;7.080;2024-01-06T07:08:58;12.07;;;6.90;;
10132;SDS011;5106;50.926;7.080;2024-01-06T07:11:25;10.90;;;6.93;;
10132;SDS011;5106;50.926;7.080;2024-01-06T07:13:50;11.40;;;7.20;;
10132;SDS011;5106;50.926;7.080;2024-01-06T07:16:16;12.73;;;8.10;;
10132;SDS011;5106;50.926;7.080;2024-01-06T07:18:41;14.70;;;8.20;;
10132;SDS011;5106;50.926;7.080;2024-01-06T07:21:07;11.43;;;7.33;;
10132;SDS011;5106;50.926;7.080;2024-01-06T07:23:33;13.63;;;8.17;;
10132;SDS011;5106;50.926;7.080;2024-01-06T07:25:59;14.03;;;8.33;;
10132;SDS011;5106;50.926;7.080;2024-01-06T07:28:26;14.07;;;9.07;;
10132;SDS011;5106;50.926;7.080;2024-01-06T07:30:51;12.77;;;8.37;;
10132;SDS011;5106;50.926;7.080;2024-01-06T07:33:17;15.33;;;9.03;;
10132;SDS011;5106;50.926;7.080;2024-01-06T07:35:43;13.83;;;8.40;;
10132;SDS011;5106;50.926;7.080;2024-01-06T07:38:09;13.63;;;8.63;;
10132;SDS011;5106;50.926;7.080;2024-01-06T07:40:35;15.07;;;9.00;;
10132;SDS011;5106;50.926;7.080;2024-01-06T07:43:01;14.20;;;9.43;;
10132;SDS011;5106;50.926;7.080;2024-01-06T07:45:27;16.30;;;9.00;;
10132;SDS011;5106;50.926;7.080;2024-01-06T07:47:52;13.93;;;9.07;;
10132;SDS011;5106;50.926;7.080;2024-01-06T07:50:18;14.30;;;8.97;;
10132;SDS011;5106;50.926;7.080;2024-01-06T07:52:43;16.13;;;9.83;;
10132;SDS011;5106;50.926;7.080;2024-01-06T07:55:09;19.23;;;10.37;;
10132;SDS011;5106;50.926;7.080;2024-01-06T07:57:35;15.73;;;10.60;;
10132;SDS011;5106;50.926;7.080;2024-01-06T08:00:00;16.40;;;10.27;;
10132;SDS011;5106;50.926;7.080;2024-01-06T08:02:26;15.53;;;9.87;;
10132;SDS011;5106;50.926;7.080;2024-01-06T08:04:51;16.13;;;9.50;;
10132;SDS011;5106;50.926;7.080;2024-01-06T08:07:18;14.90;;;9.27;;
10132;SDS011;5106;50.926;7.080;2024-01-06T08:09:44;17.10;;;10.17;;
10132;SDS011;5106;50.926;7.080;2024-01-06T08:12:10;15.40;;;10.30;;
10132;SDS011;5106;50.926;7.080;2024-01-06T08:14:35;17.87;;;10.43;;
10132;SDS011;5106;50.926;7.080;2024-01-06T08:17:01;18.37;;;11.43;;
10132;SDS011;5106;50.926;7.080;2024-01-06T08:19:26;15.87;;;10.40;;
10132;SDS011;5106;50.926;7.080;2024-01-06T08:22:04;18.60;;;10.97;;
10132;SDS011;5106;50.926;7.080;2024-01-06T08:24:29;18.53;;;10.67;;
10132;SDS011;5106;50.926;7.080;2024-01-06T08:26:55;19.07;;;11.50;;
10132;SDS011;5106;50.926;7.080;2024-01-06T08:29:20;17.37;;;10.80;;
10132;SDS011;5106;50.926;7.080;2024-01-06T08:31:46;17.53;;;10.47;;
10132;SDS011;5106;50.926;7.080;2024-01-06T08:34:21;16.90;;;10.43;;
10132;SDS011;5106;50.926;7.080;2024-01-06T08:36:47;14.70;;;9.80;;
10132;SDS011;5106;50.926;7.080;2024-01-06T08:39:12;17.10;;;10.97;;
10132;SDS011;5106;50.926;7.080;2024-01-06T08:41:39;14.83;;;10.10;;
10132;SDS011;5106;50.926;7.080;2024-01-06T08:44:04;17.00;;;11.07;;
10132;SDS011;5106;50.926;7.080;2024-01-06T08:46:30;15.90;;;10.20;;
10132;SDS011;5106;50.926;7.080;2024-01-06T08:48:56;13.73;;;9.27;;
10132;SDS011;5106;50.926;7.080;2024-01-06T08:51:21;16.03;;;10.37;;
10132;SDS011;5106;50.926;7.080;2024-01-06T08:53:49;16.43;;;10.93;;
10132;SDS011;5106;50.926;7.080;2024-01-06T08:56:14;15.17;;;10.53;;
10132;SDS011;5106;50.926;7.080;2024-01-06T08:58:41;14.27;;;9.83;;
10132;SDS011;5106;50.926;7.080;2024-01-06T09:01:06;14.63;;;9.60;;
10132;SDS011;5106;50.926;7.080;2024-01-06T09:03:32;14.60;;;9.17;;
10132;SDS011;5106;50.926;7.080;2024-01-06T09:05:57;13.47;;;8.83;;
10132;SDS011;5106;50.926;7.080;2024-01-06T09:08:24;15.83;;;9.80;;
10132;SDS011;5106;50.926;7.080;2024-01-06T09:10:49;17.80;;;8.67;;
10132;SDS011;5106;50.926;7.080;2024-01-06T09:13:20;14.03;;;9.00;;
10132;SDS011;5106;50.926;7.080;2024-01-06T09:15:47;12.77;;;8.63;;
10132;SDS011;5106;50.926;7.080;2024-01-06T09:18:12;13.67;;;8.93;;
10132;SDS011;5106;50.926;7.080;2024-01-06T09:20:38;13.33;;;9.63;;
10132;SDS011;5106;50.926;7.080;2024-01-06T09:23:03;16.27;;;9.63;;
10132;SDS011;5106;50.926;7.080;2024-01-06T09:25:29;13.03;;;9.03;;
10132;SDS011;5106;50.926;7.080;2024-01-06T09:27:55;14.10;;;8.87;;
10132;SDS011;5106;50.926;7.080;2024-01-06T09:30:23;11.50;;;7.67;;
10132;SDS011;5106;50.926;7.080;2024-01-06T09:32:50;14.20;;;8.87;;
10132;SDS011;5106;50.926;7.080;2024-01-06T09:35:15;12.53;;;8.23;;
10132;SDS011;5106;50.926;7.080;2024-01-06T09:37:41;11.87;;;8.00;;
10132;SDS011;5106;50.926;7.080;2024-01-06T09:40:07;12.87;;;8.23;;
10132;SDS011;5106;50.926;7.080;2024-01-06T09:42:37;14.03;;;8.50;;
10132;SDS011;5106;50.926;7.080;2024-01-06T09:45:03;13.93;;;8.60;;
10132;SDS011;5106;50.926;7.080;2024-01-06T09:47:29;13.17;;;8.53;;
10132;SDS011;5106;50.926;7.080;2024-01-06T09:49:58;12.07;;;8.27;;
10132;SDS011;5106;50.926;7.080;2024-01-06T09:52:27;13.43;;;8.30;;
10132;SDS011;5106;50.926;7.080;2024-01-06T09:54:57;13.20;;;8.20;;
10132;SDS011;5106;50.926;7.080;2024-01-06T09:57:27;12.43;;;7.90;;
10132;SDS011;5106;50.926;7.080;2024-01-06T09:59:58;12.13;;;7.77;;
10132;SDS011;5106;50.926;7.080;2024-01-06T10:02:24;13.47;;;8.43;;
10132;SDS011;5106;50.926;7.080;2024-01-06T10:04:50;13.80;;;8.27;;
10132;SDS011;5106;50.926;7.080;2024-01-06T10:07:16;13.77;;;8.03;;
10132;SDS011;5106;50.926;7.080;2024-01-06T10:09:42;13.57;;;8.30;;
10132;SDS011;5106;50.926;7.080;2024-01-06T10:12:10;13.13;;;7.30;;
10132;SDS011;5106;50.926;7.080;2024-01-06T10:14:35;14.20;;;8.07;;
10132;SDS011;5106;50.926;7.080;2024-01-06T10:17:05;11.63;;;7.23;;
10132;SDS011;5106;50.926;7.080;2024-01-06T10:19:31;15.20;;;7.93;;
10132;SDS011;5106;50.926;7.080;2024-01-06T10:21:57;13.80;;;8.43;;
10132;SDS011;5106;50.926;7.080;2024-01-06T10:24:26;12.83;;;8.10;;
10132;SDS011;5106;50.926;7.080;2024-01-06T10:26:52;15.40;;;8.30;;
10132;SDS011;5106;50.926;7.080;2024-01-06T10:29:18;12.80;;;7.83;;
10132;SDS011;5106;50.926;7.080;2024-01-06T10:31:43;13.03;;;8.40;;
10132;SDS011;5106;50.926;7.080;2024-01-06T10:34:09;12.90;;;7.57;;
10132;SDS011;5106;50.926;7.080;2024-01-06T10:36:35;13.40;;;8.50;;
10132;SDS011;5106;50.926;7.080;2024-01-06T10:39:02;13.83;;;8.37;;
10132;SDS011;5106;50.926;7.080;2024-01-06T10:41:28;13.33;;;8.10;;
10132;SDS011;5106;50.926;7.080;2024-01-06T10:43:55;14.10;;;8.47;;
10132;SDS011;5106;50.926;7.080;2024-01-06T10:46:26;13.90;;;8.53;;
10132;SDS011;5106;50.926;7.080;2024-01-06T10:48:53;13.33;;;7.87;;
10132;SDS011;5106;50.926;7.080;2024-01-06T10:51:22;14.23;;;7.90;;
10132;SDS011;5106;50.926;7.080;2024-01-06T10:53:50;15.83;;;8.43;;
10132;SDS011;5106;50.926;7.080;2024-01-06T10:56:16;12.57;;;7.57;;
10132;SDS011;5106;50.926;7.080;2024-01-06T10:58:46;14.07;;;8.10;;
10132;SDS011;5106;50.926;7.080;2024-01-06T11:01:14;13.23;;;7.90;;
10132;SDS011;5106;50.926;7.080;2024-01-06T11:03:44;12.57;;;7.67;;
10132;SDS011;5106;50.926;7.080;2024-01-06T11:06:12;12.33;;;7.97;;
10132;SDS011;5106;50.926;7.080;2024-01-06T11:08:41;15.03;;;8.67;;
10132;SDS011;5106;50.926;7.080;2024-01-06T11:11:17;13.17;;;8.13;;
10132;SDS011;5106;50.926;7.080;2024-01-06T11:13:44;13.30;;;8.23;;
10132;SDS011;5106;50.926;7.080;2024-01-06T11:16:12;13.53;;;8.60;;
10132;SDS011;5106;50.926;7.080;2024-01-06T11:19:01;13.00;;;8.37;;
10132;SDS011;5106;50.926;7.080;2024-01-06T11:21:27;12.37;;;8.30;;
10132;SDS011;5106;50.926;7.080;2024-01-06T11:26:31;16.57;;;9.47;;
10132;SDS011;5106;50.926;7.080;2024-01-06T11:28:57;13.67;;;9.00;;
10132;SDS011;5106;50.926;7.080;2024-01-06T11:31:30;12.37;;;8.50;;
10132;SDS011;5106;50.926;7.080;2024-01-06T11:33:56;13.13;;;8.43;;
10132;SDS011;5106;50.926;7.080;2024-01-06T11:36:22;14.93;;;8.97;;
10132;SDS011;5106;50.926;7.080;2024-01-06T11:38:48;12.47;;;8.33;;
10132;SDS011;5106;50.926;7.080;2024-01-06T11:44:22;12.00;;;8.53;;
10132;SDS011;5106;50.926;7.080;2024-01-06T11:46:48;11.87;;;8.43;;
10132;SDS011;5106;50.926;7.080;2024-01-06T11:49:18;15.83;;;8.40;;
10132;SDS011;5106;50.926;7.080;2024-01-06T11:51:46;14.90;;;7.90;;
10132;SDS011;5106;50.926;7.080;2024-01-06T11:54:11;16.07;;;10.50;;
10132;SDS011;5106;50.926;7.080;2024-01-06T11:56:37;15.13;;;10.60;;
10132;SDS011;5106;50.926;7.080;2024-01-06T11:59:03;16.70;;;11.53;;
10132;SDS011;5106;50.926;7.080;2024-01-06T12:01:36;18.30;;;11.13;;
10132;SDS011;5106;50.926;7.080;2024-01-06T12:04:05;16.97;;;11.10;;
10132;SDS011;5106;50.926;7.080;2024-01-06T12:06:34;17.50;;;11.53;;
10132;SDS011;5106;50.926;7.080;2024-01-06T12:09:06;19.90;;;12.07;;
10132;SDS011;5106;50.926;7.080;2024-01-06T12:11:32;15.53;;;10.97;;
10132;SDS011;5106;50.926;7.080;2024-01-06T12:13:58;17.77;;;10.73;;
10132;SDS011;5106;50.926;7.080;2024-01-06T12:16:24;15.10;;;10.13;;
10132;SDS011;5106;50.926;7.080;2024-01-06T12:18:53;17.27;;;11.20;;
10132;SDS011;5106;50.926;7.080;2024-01-06T12:21:24;21.47;;;12.17;;
10132;SDS011;5106;50.926;7.080;2024-01-06T12:23:50;22.23;;;12.43;;
10132;SDS011;5106;50.926;7.080;2024-01-06T12:26:19;19.00;;;11.90;;
10132;SDS011;5106;50.926;7.080;2024-01-06T12:28:45;23.57;;;12.73;;
10132;SDS011;5106;50.926;7.080;2024-01-06T12:31:11;22.80;;;12.80;;
10132;SDS011;5106;50.926;7.080;2024-01-06T12:33:38;23.33;;;13.00;;
10132;SDS011;5106;50.926;7.080;2024-01-06T12:36:06;22.87;;;12.80;;
10132;SDS011;5106;50.926;7.080;2024-01-06T12:38:33;23.63;;;13.53;;
10132;SDS011;5106;50.926;7.080;2024-01-06T12:41:03;21.80;;;11.80;;
10132;SDS011;5106;50.926;7.080;2024-01-06T12:43:29;23.00;;;12.03;;
10132;SDS011;5106;50.926;7.080;2024-01-06T12:45:55;22.53;;;11.67;;
10132;SDS011;5106;50.926;7.080;2024-01-06T12:48:22;22.40;;;12.53;;
10132;SDS011;5106;50.926;7.080;2024-01-06T12:50:48;19.00;;;11.60;;
10132;SDS011;5106;50.926;7.080;2024-01-06T12:53:14;22.53;;;12.73;;
10132;SDS011;5106;50.926;7.080;2024-01-06T12:55:42;20.43;;;11.87;;
10132;SDS011;5106;50.926;7.080;2024-01-06T12:58:08;21.90;;;11.33;;
10132;SDS011;5106;50.926;7.080;2024-01-06T13:00:34;18.67;;;10.27;;
10132;SDS011;5106;50.926;7.080;2024-01-06T13:02:59;20.53;;;9.63;;
10132;SDS011;5106;50.926;7.080;2024-01-06T13:05:25;18.67;;;9.30;;
10132;SDS011;5106;50.926;7.080;2024-01-06T13:07:51;17.67;;;9.93;;
10132;SDS011;5106;50.926;7.080;2024-01-06T13:10:16;16.57;;;9.27;;
10132;SDS011;5106;50.926;7.080;2024-01-06T13:12:42;18.67;;;9.73;;
10132;SDS011;5106;50.926;7.080;2024-01-06T13:15:08;19.33;;;10.93;;
10132;SDS011;5106;50.926;7.080;2024-01-06T13:17:37;19.33;;;10.07;;
10132;SDS011;5106;50.926;7.080;2024-01-06T13:20:03;20.67;;;11.30;;
10132;SDS011;5106;50.926;7.080;2024-01-06T13:22:29;21.83;;;12.30;;
10132;SDS011;5106;50.926;7.080;2024-01-06T13:24:55;24.90;;;13.07;;
10132;SDS011;5106;50.926;7.080;2024-01-06T13:27:21;24.87;;;13.10;;
10132;SDS011;5106;50.926;7.080;2024-01-06T13:29:47;24.53;;;12.03;;
10132;SDS011;5106;50.926;7.080;2024-01-06T13:32:13;22.50;;;12.20;;
10132;SDS011;5106;50.926;7.080;2024-01-06T13:34:40;24.13;;;12.23;;
10132;SDS011;5106;50.926;7.080;2024-01-06T13:37:06;22.30;;;11.63;;
10132;SDS011;5106;50.926;7.080;2024-01-06T13:39:32;23.37;;;12.10;;
10132;SDS011;5106;50.926;7.080;2024-01-06T13:41:58;22.93;;;12.20;;
10132;SDS011;5106;50.926;7.080;2024-01-06T13:44:24;22.33;;;11.33;;
10132;SDS011;5106;50.926;7.080;2024-01-06T13:46:49;22.00;;;12.03;;
10132;SDS011;5106;50.926;7.080;2024-01-06T13:49:16;21.20;;;11.70;;
10132;SDS011;5106;50.926;7.080;2024-01-06T13:51:42;19.77;;;11.47;;
10132;SDS011;5106;50.926;7.080;2024-01-06T13:54:08;21.57;;;12.30;;
10132;SDS011;5106;50.926;7.080;2024-01-06T13:56:34;21.03;;;11.60;;
10132;SDS011;5106;50.926;7.080;2024-01-06T13:59:00;20.93;;;11.67;;
10132;SDS011;5106;50.926;7.080;2024-01-06T14:01:26;18.93;;;10.27;;
10132;SDS011;5106;50.926;7.080;2024-01-06T14:03:52;22.53;;;13.00;;
10132;SDS011;5106;50.926;7.080;2024-01-06T14:06:23;19.33;;;10.93;;
10132;SDS011;5106;50.926;7.080;2024-01-06T14:08:50;20.90;;;11.70;;
10132;SDS011;5106;50.926;7.080;2024-01-06T14:11:17;22.87;;;13.50;;
10132;SDS011;5106;50.926;7.080;2024-01-06T14:13:43;26.33;;;15.77;;
10132;SDS011;5106;50.926;7.080;2024-01-06T14:16:13;29.50;;;16.83;;
10132;SDS011;5106;50.926;7.080;2024-01-06T14:18:39;30.00;;;18.27;;
10132;SDS011;5106;50.926;7.080;2024-01-06T14:21:04;32.43;;;18.60;;
10132;SDS011;5106;50.926;7.080;2024-01-06T14:23:30;34.50;;;20.33;;
10132;SDS011;5106;50.926;7.080;2024-01-06T14:25:57;34.97;;;20.83;;
10132;SDS011;5106;50.926;7.080;2024-01-06T14:28:23;36.33;;;21.00;;
10132;SDS011;5106;50.926;7.080;2024-01-06T14:30:49;35.87;;;20.03;;
10132;SDS011;5106;50.926;7.080;2024-01-06T14:33:15;38.27;;;21.10;;
10132;SDS011;5106;50.926;7.080;2024-01-06T14:35:40;35.90;;;21.30;;
10132;SDS011;5106;50.926;7.080;2024-01-06T14:38:07;32.83;;;19.60;;
10132;SDS011;5106;50.926;7.080;2024-01-06T14:40:33;33.33;;;19.50;;
10132;SDS011;5106;50.926;7.080;2024-01-06T14:42:59;32.20;;;20.17;;
10132;SDS011;5106;50.926;7.080;2024-01-06T14:45:27;29.33;;;18.73;;